createdAt,value
2023-05-26T00:00:36.403Z,11.62
2023-05-26T00:03:10.732Z,11.51
2023-05-26T00:05:44.629Z,11.55
2023-05-26T00:08:18.322Z,11.35
2023-05-26T00:10:52.198Z,11.46
2023-05-26T00:13:25.883Z,11.42
2023-05-26T00:15:59.189Z,11.32
2023-05-26T00:18:34.767Z,11.28
2023-05-26T00:21:08.037Z,11.24
2023-05-26T00:23:41.419Z,11.13
2023-05-26T00:26:15.125Z,11.12
2023-05-26T00:28:48.718Z,11.10
2023-05-26T00:31:22.051Z,11.02
2023-05-26T00:33:55.049Z,11.03
2023-05-26T00:36:28.334Z,10.95
2023-05-26T00:39:01.634Z,10.98
2023-05-26T00:41:35.159Z,10.88
2023-05-26T00:44:08.593Z,10.80
2023-05-26T00:46:42.200Z,10.89
2023-05-26T00:49:16.014Z,10.85
2023-05-26T00:51:51.039Z,10.75
2023-05-26T00:54:25.756Z,10.75
2023-05-26T00:57:00.121Z,10.69
2023-05-26T00:59:34.234Z,10.59
2023-05-26T01:02:07.905Z,10.70
2023-05-26T01:04:42.195Z,10.69
2023-05-26T01:07:15.466Z,10.57
2023-05-26T01:09:49.766Z,10.69
2023-05-26T01:12:34.573Z,10.56
2023-05-26T01:15:14.240Z,10.55
2023-05-26T01:17:58.681Z,10.49
2023-05-26T01:20:40.524Z,10.45
2023-05-26T01:23:39.716Z,10.44
2023-05-26T01:26:43.624Z,10.47
2023-05-26T01:29:21.003Z,10.38
2023-05-26T01:31:54.923Z,10.24
2023-05-26T01:34:28.499Z,10.33
2023-05-26T01:37:01.903Z,10.28
2023-05-26T01:39:36.355Z,10.25
2023-05-26T01:42:30.762Z,10.25
2023-05-26T01:45:13.447Z,10.12
2023-05-26T01:47:51.659Z,10.16
2023-05-26T01:50:36.874Z,10.10
2023-05-26T01:53:14.606Z,10.15
2023-05-26T01:55:50.499Z,10.01
2023-05-26T01:58:25.028Z,9.95
2023-05-26T02:00:59.298Z,10.01
2023-05-26T02:03:32.793Z,9.97
2023-05-26T02:06:06.388Z,9.93
2023-05-26T02:08:39.660Z,9.85
2023-05-26T02:11:12.939Z,9.83
2023-05-26T02:13:47.228Z,9.79
2023-05-26T02:16:22.794Z,9.80
2023-05-26T02:18:58.045Z,9.79
2023-05-26T02:21:32.451Z,9.73
2023-05-26T02:24:06.116Z,9.71
2023-05-26T02:26:39.434Z,9.58
2023-05-26T02:29:13.289Z,9.54
2023-05-26T02:31:46.332Z,9.60
2023-05-26T02:34:20.062Z,9.49
2023-05-26T02:36:56.311Z,9.51
2023-05-26T02:39:30.999Z,9.45
2023-05-26T02:42:04.312Z,9.35
2023-05-26T02:44:37.575Z,9.38
2023-05-26T02:47:10.897Z,9.35
2023-05-26T02:49:44.658Z,9.14
2023-05-26T02:52:18.311Z,9.03
2023-05-26T02:54:52.190Z,9.16
2023-05-26T02:57:25.536Z,9.13
2023-05-26T02:59:58.857Z,9.11
2023-05-26T03:02:31.992Z,9.07
2023-05-26T03:05:05.766Z,8.99
2023-05-26T03:07:39.184Z,9.09
2023-05-26T03:10:14.683Z,9.08
2023-05-26T03:12:47.941Z,9.12
2023-05-26T03:15:21.239Z,9.12
2023-05-26T03:17:54.554Z,9.12
2023-05-26T03:20:28.219Z,9.14
2023-05-26T03:23:01.923Z,9.15
2023-05-26T03:25:35.402Z,9.17
2023-05-26T03:28:08.644Z,9.11
2023-05-26T03:30:41.902Z,9.03
2023-05-26T03:33:15.151Z,9.06
2023-05-26T03:35:48.704Z,9.07
2023-05-26T03:38:22.384Z,9.07
2023-05-26T03:40:56.384Z,8.99
2023-05-26T03:43:29.984Z,8.99
2023-05-26T03:46:03.333Z,8.90
2023-05-26T03:48:36.601Z,8.86
2023-05-26T03:51:10.156Z,8.86
2023-05-26T03:53:43.827Z,8.80
2023-05-26T03:56:17.113Z,8.80
2023-05-26T03:58:50.366Z,8.76
2023-05-26T04:01:23.712Z,8.75
2023-05-26T04:03:57.059Z,8.71
2023-05-26T04:06:31.469Z,8.75
2023-05-26T04:09:05.612Z,8.63
2023-05-26T04:11:38.926Z,8.54
2023-05-26T04:14:12.181Z,8.53
2023-05-26T04:16:46.174Z,8.50
2023-05-26T04:19:19.430Z,8.56
2023-05-26T04:21:53.321Z,8.60
2023-05-26T04:24:28.050Z,8.57
2023-05-26T04:27:03.216Z,8.43
2023-05-26T04:29:36.708Z,8.42
2023-05-26T04:32:13.094Z,8.45
2023-05-26T04:34:46.989Z,8.53
2023-05-26T04:37:20.356Z,8.63
2023-05-26T04:39:53.723Z,8.65
2023-05-26T04:42:27.172Z,8.54
2023-05-26T04:45:01.574Z,8.59
2023-05-26T04:47:36.125Z,8.56
2023-05-26T04:50:13.473Z,8.63
2023-05-26T04:52:47.513Z,8.58
2023-05-26T04:55:20.854Z,8.68
2023-05-26T04:57:54.178Z,8.63
2023-05-26T05:00:31.403Z,8.64
2023-05-26T05:03:05.186Z,8.62
2023-05-26T05:05:38.241Z,8.66
2023-05-26T05:08:11.596Z,8.61
2023-05-26T05:10:45.237Z,8.48
2023-05-26T05:13:18.577Z,8.51
2023-05-26T05:15:51.971Z,8.54
2023-05-26T05:18:25.644Z,8.65
2023-05-26T05:20:58.769Z,8.65
2023-05-26T05:23:35.280Z,8.58
2023-05-26T05:26:09.028Z,8.71
2023-05-26T05:28:42.339Z,8.73
2023-05-26T05:31:15.688Z,8.80
2023-05-26T05:33:50.491Z,8.82
2023-05-26T05:36:23.513Z,8.86
2023-05-26T05:38:56.941Z,8.74
2023-05-26T05:41:30.794Z,8.85
2023-05-26T05:44:04.424Z,8.92
2023-05-26T05:46:37.967Z,8.96
2023-05-26T05:49:11.573Z,8.95
2023-05-26T05:51:44.821Z,8.98
2023-05-26T05:54:18.246Z,8.97
2023-05-26T05:56:51.516Z,8.99
2023-05-26T05:59:24.824Z,8.97
2023-05-26T06:01:58.150Z,9.03
2023-05-26T06:04:31.537Z,9.02
2023-05-26T06:07:04.770Z,9.00
2023-05-26T06:09:38.122Z,8.95
2023-05-26T06:12:14.742Z,9.04
2023-05-26T06:14:48.238Z,8.98
2023-05-26T06:17:21.586Z,9.07
2023-05-26T06:19:55.219Z,9.12
2023-05-26T06:22:28.407Z,9.14
2023-05-26T06:25:01.802Z,9.19
2023-05-26T06:27:35.073Z,9.27
2023-05-26T06:30:11.015Z,9.31
2023-05-26T06:32:44.830Z,9.36
2023-05-26T06:35:18.457Z,9.44
2023-05-26T06:37:51.664Z,9.50
2023-05-26T06:40:25.091Z,9.55
2023-05-26T06:42:58.482Z,9.58
2023-05-26T06:45:31.737Z,9.61
2023-05-26T06:48:05.100Z,9.67
2023-05-26T06:50:38.661Z,9.73
2023-05-26T06:53:11.652Z,9.73
2023-05-26T06:55:45.394Z,9.78
2023-05-26T06:58:18.694Z,9.82
2023-05-26T07:01:05.362Z,9.91
2023-05-26T07:03:38.970Z,9.97
2023-05-26T07:06:12.542Z,10.07
2023-05-26T07:08:46.411Z,10.15
2023-05-26T07:11:19.767Z,10.17
2023-05-26T07:13:56.179Z,10.25
2023-05-26T07:16:29.429Z,10.27
2023-05-26T07:19:03.310Z,10.33
2023-05-26T07:21:36.972Z,10.40
2023-05-26T07:24:10.396Z,10.43
2023-05-26T07:26:43.783Z,10.42
2023-05-26T07:29:17.052Z,10.52
2023-05-26T07:31:50.452Z,10.59
2023-05-26T07:34:24.010Z,10.69
2023-05-26T07:36:57.420Z,10.75
2023-05-26T07:39:30.554Z,10.81
2023-05-26T07:42:03.923Z,10.84
2023-05-26T07:44:37.180Z,10.99
2023-05-26T07:47:11.529Z,11.05
2023-05-26T07:49:44.794Z,11.06
2023-05-26T07:52:18.332Z,11.14
2023-05-26T07:54:51.702Z,11.26
2023-05-26T07:57:30.127Z,11.30
2023-05-26T08:00:06.158Z,11.42
2023-05-26T08:02:40.216Z,11.52
2023-05-26T08:05:13.918Z,11.62
2023-05-26T08:07:47.229Z,11.62
2023-05-26T08:10:20.410Z,11.76
2023-05-26T08:12:53.793Z,11.85
2023-05-26T08:15:27.264Z,11.93
2023-05-26T08:18:01.001Z,11.99
2023-05-26T08:20:34.685Z,12.01
2023-05-26T08:23:08.801Z,12.09
2023-05-26T08:25:41.785Z,12.20
2023-05-26T08:28:15.395Z,12.29
2023-05-26T08:30:49.011Z,12.37
2023-05-26T08:33:22.399Z,12.45
2023-05-26T08:35:56.189Z,12.54
2023-05-26T08:38:30.677Z,12.65
2023-05-26T08:41:07.840Z,12.73
2023-05-26T08:46:29.292Z,12.94
2023-05-26T08:49:04.679Z,13.06
2023-05-26T08:51:45.955Z,13.16
2023-05-26T08:54:19.517Z,13.26
2023-05-26T08:56:54.004Z,13.39
2023-05-26T08:59:29.930Z,13.48
2023-05-26T09:02:03.465Z,13.52
2023-05-26T09:04:37.166Z,13.53
2023-05-26T09:09:48.772Z,13.66
2023-05-26T09:12:23.189Z,13.73
2023-05-26T09:14:57.736Z,13.81
2023-05-26T09:17:36.718Z,13.91
2023-05-26T09:20:13.059Z,14.00
2023-05-26T09:22:48.141Z,14.10
2023-05-26T09:25:25.542Z,14.18
2023-05-26T09:28:06.681Z,14.27
2023-05-26T09:30:45.447Z,14.44
2023-05-26T09:33:21.192Z,14.48
2023-05-26T09:35:57.152Z,14.56
2023-05-26T09:38:33.549Z,14.51
2023-05-26T09:41:07.526Z,14.63
2023-05-26T09:43:40.517Z,14.68
2023-05-26T09:46:27.044Z,14.79
2023-05-26T09:49:22.588Z,14.88
2023-05-26T09:52:12.754Z,14.99
2023-05-26T09:54:47.159Z,15.11
2023-05-26T09:57:28.697Z,15.18
2023-05-26T10:00:08.816Z,15.35
2023-05-26T10:02:44.289Z,15.42
2023-05-26T10:05:19.677Z,15.52
2023-05-26T10:07:56.536Z,15.57
2023-05-26T10:10:32.553Z,15.69
2023-05-26T10:13:07.019Z,15.77
2023-05-26T10:15:40.349Z,15.76
2023-05-26T10:18:13.754Z,15.87
2023-05-26T10:20:55.676Z,15.80
2023-05-26T10:23:38.628Z,15.93
2023-05-26T10:26:21.391Z,16.07
2023-05-26T10:29:04.307Z,16.30
2023-05-26T10:31:41.250Z,16.46
2023-05-26T10:34:46.230Z,16.47
2023-05-26T10:37:21.842Z,16.58
2023-05-26T10:39:55.852Z,16.70
2023-05-26T10:42:32.743Z,16.76
2023-05-26T10:45:23.318Z,16.86
2023-05-26T10:48:07.130Z,16.89
2023-05-26T10:51:10.437Z,17.12
2023-05-26T10:53:48.556Z,17.22
2023-05-26T10:56:26.963Z,17.14
2023-05-26T10:59:04.647Z,17.19
2023-05-26T11:01:39.298Z,17.34
2023-05-26T11:04:15.771Z,17.41
2023-05-26T11:06:55.389Z,17.72
2023-05-26T11:09:30.732Z,17.75
2023-05-26T11:12:09.429Z,17.85
2023-05-26T11:14:42.775Z,17.77
2023-05-26T11:17:22.411Z,17.78
2023-05-26T11:20:03.554Z,17.82
2023-05-26T11:22:37.648Z,17.93
2023-05-26T11:25:13.397Z,18.04
2023-05-26T11:27:53.551Z,18.08
2023-05-26T11:30:36.353Z,18.19
2023-05-26T11:33:16.587Z,18.34
2023-05-26T11:35:49.579Z,18.38
2023-05-26T11:38:25.088Z,18.25
2023-05-26T11:40:58.452Z,18.54
2023-05-26T11:43:31.927Z,18.53
2023-05-26T11:46:08.540Z,18.58
2023-05-26T11:48:45.521Z,18.81
2023-05-26T11:51:21.402Z,18.74
2023-05-26T11:54:00.662Z,18.81
2023-05-26T11:56:41.118Z,19.03
2023-05-26T11:59:19.919Z,19.09
2023-05-26T12:01:53.761Z,19.18
2023-05-26T12:04:34.859Z,19.37
2023-05-26T12:07:07.992Z,19.43
2023-05-26T12:09:42.520Z,19.59
2023-05-26T12:12:16.633Z,19.60
2023-05-26T12:14:50.002Z,19.74
2023-05-26T12:17:25.254Z,19.60
2023-05-26T12:20:01.753Z,19.50
2023-05-26T12:22:35.343Z,19.80
2023-05-26T12:25:09.844Z,19.84
2023-05-26T12:27:43.632Z,19.95
2023-05-26T12:31:02.028Z,20.03
2023-05-26T12:33:22.676Z,20.19
2023-05-26T12:35:56.505Z,20.36
2023-05-26T12:38:40.401Z,20.27
2023-05-26T12:41:13.699Z,20.23
2023-05-26T12:43:46.967Z,20.52
2023-05-26T12:46:20.301Z,20.80
2023-05-26T12:48:56.649Z,20.89
2023-05-26T12:51:32.196Z,20.84
2023-05-26T12:54:06.292Z,20.77
2023-05-26T12:56:40.250Z,20.80
2023-05-26T12:59:19.507Z,20.83
2023-05-26T13:01:54.515Z,20.82
2023-05-26T13:04:29.072Z,20.85
2023-05-26T13:07:03.868Z,21.02
2023-05-26T13:09:37.190Z,21.06
2023-05-26T13:12:12.531Z,20.95
2023-05-26T13:14:45.859Z,21.09
2023-05-26T13:17:20.075Z,21.26
2023-05-26T13:19:53.847Z,21.09
2023-05-26T13:22:27.515Z,21.12
2023-05-26T13:25:00.987Z,21.34
2023-05-26T13:27:34.252Z,21.35
2023-05-26T13:30:08.707Z,21.59
2023-05-26T13:32:42.119Z,21.36
2023-05-26T13:35:16.088Z,21.46
2023-05-26T13:37:50.811Z,21.57
2023-05-26T13:40:25.726Z,21.74
2023-05-26T13:42:59.006Z,21.73
2023-05-26T13:45:33.702Z,21.94
2023-05-26T13:48:08.580Z,21.86
2023-05-26T13:50:42.191Z,22.24
2023-05-26T13:53:15.509Z,22.17
2023-05-26T13:55:50.881Z,22.36
2023-05-26T13:58:24.486Z,22.11
2023-05-26T14:00:58.454Z,22.25
2023-05-26T14:03:32.230Z,22.16
2023-05-26T14:06:05.853Z,21.98
2023-05-26T14:08:39.113Z,22.25
2023-05-26T14:11:12.389Z,22.28
2023-05-26T14:13:45.762Z,22.28
2023-05-26T14:16:19.106Z,22.55
2023-05-26T14:19:07.253Z,22.49
2023-05-26T14:22:09.416Z,22.05
2023-05-26T14:24:41.855Z,22.35
2023-05-26T14:27:15.419Z,22.55
2023-05-26T14:29:48.699Z,22.53
2023-05-26T14:32:22.027Z,22.49
2023-05-26T14:34:55.378Z,22.42
2023-05-26T14:37:29.170Z,22.66
2023-05-26T14:40:02.633Z,22.48
2023-05-26T14:42:36.400Z,22.28
2023-05-26T14:45:11.695Z,22.39
2023-05-26T14:47:45.079Z,22.45
2023-05-26T14:50:20.854Z,22.50
2023-05-26T14:52:56.025Z,22.32
2023-05-26T14:55:29.890Z,22.30
2023-05-26T14:58:11.098Z,22.29
2023-05-26T15:00:45.277Z,22.32
2023-05-26T15:03:18.698Z,22.55
2023-05-26T15:05:52.423Z,22.61
2023-05-26T15:08:26.060Z,22.62
2023-05-26T15:10:59.294Z,22.49
2023-05-26T15:13:32.519Z,22.55
2023-05-26T15:16:05.957Z,22.58
2023-05-26T15:18:39.613Z,22.74
2023-05-26T15:21:13.015Z,22.59
2023-05-26T15:23:46.679Z,22.35
2023-05-26T15:26:20.043Z,22.61
2023-05-26T15:28:53.282Z,22.73
2023-05-26T15:31:26.611Z,22.59
2023-05-26T15:34:00.041Z,22.60
2023-05-26T15:36:33.786Z,22.73
2023-05-26T15:39:07.403Z,22.46
2023-05-26T15:41:41.060Z,22.55
2023-05-26T15:44:14.961Z,22.67
2023-05-26T15:46:48.283Z,22.42
2023-05-26T15:49:23.098Z,22.47
2023-05-26T15:51:57.341Z,22.52
2023-05-26T15:54:30.840Z,22.54
2023-05-26T15:57:10.884Z,22.51
2023-05-26T15:59:54.875Z,22.54
2023-05-26T16:02:29.044Z,22.62
2023-05-26T16:05:02.446Z,22.67
2023-05-26T16:07:35.801Z,22.58
2023-05-26T16:10:11.986Z,22.51
2023-05-26T16:12:45.722Z,22.25
2023-05-26T16:15:21.211Z,22.16
2023-05-26T16:17:55.849Z,22.29
2023-05-26T16:20:29.264Z,22.41
2023-05-26T16:23:03.550Z,22.41
2023-05-26T16:25:36.905Z,22.27
2023-05-26T16:28:10.307Z,22.07
2023-05-26T16:30:43.423Z,22.10
2023-05-26T16:33:18.859Z,21.86
2023-05-26T16:35:54.287Z,21.92
2023-05-26T16:38:31.887Z,21.82
2023-05-26T16:41:05.430Z,21.86
2023-05-26T16:46:15.149Z,21.68
2023-05-26T16:48:48.637Z,21.63
2023-05-26T16:51:22.017Z,21.53
2023-05-26T16:53:55.380Z,21.55
2023-05-26T16:56:28.750Z,21.56
2023-05-26T16:59:02.059Z,21.58
2023-05-26T17:01:35.098Z,21.58
2023-05-26T17:04:10.890Z,21.59
2023-05-26T17:06:45.542Z,21.48
2023-05-26T17:09:19.031Z,21.17
2023-05-26T17:11:52.464Z,20.96
2023-05-26T17:14:25.742Z,20.79
2023-05-26T17:16:59.030Z,20.78
2023-05-26T17:19:33.487Z,20.63
2023-05-26T17:22:07.290Z,20.86
2023-05-26T17:24:40.728Z,20.67
2023-05-26T17:27:15.179Z,20.74
2023-05-26T17:29:48.490Z,20.55
2023-05-26T17:32:21.757Z,20.47
2023-05-26T17:34:55.021Z,20.48
2023-05-26T17:37:28.632Z,20.51
2023-05-26T17:40:02.312Z,20.14
2023-05-26T17:42:35.788Z,20.24
2023-05-26T17:45:12.192Z,20.31
2023-05-26T17:47:45.484Z,20.12
2023-05-26T17:50:19.057Z,19.92
2023-05-26T17:52:52.546Z,19.83
2023-05-26T17:55:25.947Z,19.95
2023-05-26T17:57:59.306Z,20.03
2023-05-26T18:00:32.849Z,19.72
2023-05-26T18:03:06.225Z,19.73
2023-05-26T18:05:39.874Z,19.79
2023-05-26T18:08:13.729Z,19.45
2023-05-26T18:10:47.140Z,19.39
2023-05-26T18:13:20.723Z,19.37
2023-05-26T18:15:54.321Z,19.41
2023-05-26T18:18:27.501Z,19.08
2023-05-26T18:21:01.195Z,18.88
2023-05-26T18:23:35.152Z,18.82
2023-05-26T18:26:09.098Z,18.71
2023-05-26T18:28:42.636Z,18.81
2023-05-26T18:31:16.288Z,18.62
2023-05-26T18:33:49.405Z,18.66
2023-05-26T18:36:22.731Z,18.57
2023-05-26T18:38:56.076Z,18.54
2023-05-26T18:41:29.448Z,18.54
2023-05-26T18:44:02.884Z,18.53
2023-05-26T18:46:36.355Z,18.40
2023-05-26T18:49:09.675Z,18.34
2023-05-26T18:51:43.078Z,18.36
2023-05-26T18:54:16.974Z,18.18
2023-05-26T18:56:50.283Z,18.06
2023-05-26T18:59:23.652Z,18.04
2023-05-26T19:01:56.908Z,18.01
2023-05-26T19:04:30.052Z,17.86
2023-05-26T19:07:03.381Z,17.80
2023-05-26T19:09:36.800Z,17.85
2023-05-26T19:12:10.944Z,17.70
2023-05-26T19:14:44.209Z,17.76
2023-05-26T19:17:17.476Z,17.65
2023-05-26T19:19:50.598Z,17.61
2023-05-26T19:22:23.913Z,17.58
2023-05-26T19:24:57.699Z,17.58
2023-05-26T19:27:31.130Z,17.47
2023-05-26T19:30:04.708Z,17.31
2023-05-26T19:32:38.629Z,17.24
2023-05-26T19:35:14.402Z,17.28
2023-05-26T19:37:47.962Z,17.19
2023-05-26T19:40:21.410Z,17.21
2023-05-26T19:42:54.983Z,17.07
2023-05-26T19:45:29.133Z,16.97
2023-05-26T19:48:02.552Z,16.95
2023-05-26T19:50:35.841Z,16.97
2023-05-26T19:53:09.143Z,16.85
2023-05-26T19:55:42.565Z,16.77
2023-05-26T19:58:15.896Z,16.69
2023-05-26T20:00:49.583Z,16.62
2023-05-26T20:03:23.549Z,16.57
2023-05-26T20:05:56.916Z,16.59
2023-05-26T20:08:31.523Z,16.47
2023-05-26T20:11:05.188Z,16.50
2023-05-26T20:13:38.690Z,16.38
2023-05-26T20:16:12.616Z,16.36
2023-05-26T20:18:45.967Z,16.26
2023-05-26T20:21:19.091Z,16.26
2023-05-26T20:23:52.690Z,16.24
2023-05-26T20:26:26.255Z,16.07
2023-05-26T20:28:59.912Z,16.10
2023-05-26T20:31:33.212Z,15.94
2023-05-26T20:34:06.478Z,15.94
2023-05-26T20:36:39.940Z,15.78
2023-05-26T20:39:13.691Z,15.77
2023-05-26T20:41:47.397Z,15.53
2023-05-26T20:44:21.020Z,15.58
2023-05-26T20:46:54.349Z,15.57
2023-05-26T20:49:27.986Z,15.58
2023-05-26T20:52:01.057Z,15.50
2023-05-26T20:54:34.438Z,15.49
2023-05-26T20:57:09.241Z,15.48
2023-05-26T20:59:45.580Z,15.36
2023-05-26T21:02:19.197Z,15.33
2023-05-26T21:04:52.810Z,15.09
2023-05-26T21:07:28.361Z,15.06
2023-05-26T21:10:01.968Z,15.04
2023-05-26T21:12:35.288Z,15.00
2023-05-26T21:15:11.327Z,14.90
2023-05-26T21:17:45.089Z,14.81
2023-05-26T21:20:18.530Z,14.76
2023-05-26T21:22:51.884Z,14.69
2023-05-26T21:25:25.125Z,14.60
2023-05-26T21:27:58.443Z,14.52
2023-05-26T21:30:32.186Z,14.50
2023-05-26T21:33:08.359Z,14.49
2023-05-26T21:35:42.124Z,14.48
2023-05-26T21:38:15.714Z,14.30
2023-05-26T21:40:49.001Z,14.29
2023-05-26T21:43:22.306Z,14.20
2023-05-26T21:45:56.089Z,14.13
2023-05-26T21:48:29.833Z,14.11
2023-05-26T21:51:03.250Z,14.01
2023-05-26T21:53:36.745Z,14.00
2023-05-26T21:56:11.323Z,13.99
2023-05-26T21:58:44.897Z,13.92
2023-05-26T22:01:18.267Z,13.97
2023-05-26T22:03:52.044Z,13.89
2023-05-26T22:06:25.855Z,13.81
2023-05-26T22:08:59.542Z,13.81
2023-05-26T22:11:33.091Z,13.75
2023-05-26T22:14:21.397Z,13.75
2023-05-26T22:16:58.554Z,13.66
2023-05-26T22:19:31.862Z,13.60
2023-05-26T22:22:05.734Z,13.58
2023-05-26T22:24:38.932Z,13.53
2023-05-26T22:27:12.371Z,13.49
2023-05-26T22:29:45.707Z,13.48
2023-05-26T22:32:19.053Z,13.44
2023-05-26T22:34:52.370Z,13.31
2023-05-26T22:37:25.757Z,13.32
2023-05-26T22:39:59.095Z,13.22
2023-05-26T22:42:32.383Z,13.26
2023-05-26T22:45:05.794Z,13.18
2023-05-26T22:47:39.143Z,13.14
2023-05-26T22:50:15.048Z,13.05
2023-05-26T22:52:48.358Z,13.10
2023-05-26T22:55:26.058Z,12.89
2023-05-26T22:58:06.097Z,12.93
2023-05-26T23:00:39.731Z,12.97
2023-05-26T23:03:13.463Z,12.88
2023-05-26T23:05:47.184Z,12.87
2023-05-26T23:08:20.550Z,12.92
2023-05-26T23:10:53.542Z,12.84
2023-05-26T23:13:26.860Z,12.68
2023-05-26T23:16:00.469Z,12.68
2023-05-26T23:18:34.611Z,12.62
2023-05-26T23:21:08.906Z,12.51
2023-05-26T23:23:42.241Z,12.51
2023-05-26T23:26:15.475Z,12.54
2023-05-26T23:28:48.758Z,12.47
2023-05-26T23:31:22.242Z,12.46
2023-05-26T23:33:55.912Z,12.34
2023-05-26T23:36:29.282Z,12.35
2023-05-26T23:39:02.521Z,12.33
2023-05-26T23:41:35.897Z,12.20
2023-05-26T23:44:09.240Z,12.30
2023-05-26T23:46:42.651Z,12.27
2023-05-26T23:49:16.378Z,12.26
2023-05-26T23:51:49.701Z,12.20
2023-05-26T23:54:23.026Z,12.11
2023-05-26T23:56:56.055Z,12.01
2023-05-26T23:59:29.586Z,12.05
